createdAt,value
2022-09-27T00:00:43.242Z,18.70
2022-09-27T00:03:10.811Z,18.60
2022-09-27T00:05:37.985Z,18.60
2022-09-27T00:08:04.852Z,18.60
2022-09-27T00:10:33.634Z,18.50
2022-09-27T00:13:00.765Z,18.50
2022-09-27T00:15:27.758Z,18.50
2022-09-27T00:17:55.101Z,18.50
2022-09-27T00:20:22.029Z,18.40
2022-09-27T00:22:49.341Z,18.40
2022-09-27T00:25:17.923Z,18.40
2022-09-27T00:27:44.915Z,18.40
2022-09-27T00:30:12.183Z,18.40
2022-09-27T00:32:39.059Z,18.30
2022-09-27T00:35:05.989Z,18.20
2022-09-27T00:37:33.232Z,18.10
2022-09-27T00:40:00.232Z,18.10
2022-09-27T00:42:27.176Z,18.10
2022-09-27T00:45:01.376Z,18.10
2022-09-27T00:47:30.633Z,18.10
2022-09-27T00:50:00.533Z,18.20
2022-09-27T00:52:36.387Z,18.20
2022-09-27T00:55:05.302Z,18.30
2022-09-27T00:57:32.144Z,18.30
2022-09-27T01:00:01.075Z,18.20
2022-09-27T01:02:28.067Z,18.30
2022-09-27T01:04:55.710Z,18.20
2022-09-27T01:07:22.525Z,18.30
2022-09-27T01:09:49.465Z,18.30
2022-09-27T01:12:19.384Z,18.20
2022-09-27T01:15:01.340Z,18.30
2022-09-27T01:17:40.441Z,18.20
2022-09-27T01:20:16.499Z,18.20
2022-09-27T01:23:01.907Z,18.10
2022-09-27T01:25:40.785Z,18.10
2022-09-27T01:28:16.121Z,18.00
2022-09-27T01:30:48.470Z,18.00
2022-09-27T01:33:23.415Z,18.10
2022-09-27T01:35:50.241Z,18.10
2022-09-27T01:38:43.259Z,18.10
2022-09-27T01:41:14.157Z,18.00
2022-09-27T01:43:43.150Z,18.10
2022-09-27T01:46:15.521Z,18.00
2022-09-27T01:48:43.300Z,18.00
2022-09-27T01:51:17.035Z,18.00
2022-09-27T01:53:44.861Z,18.00
2022-09-27T01:56:13.975Z,18.00
2022-09-27T01:58:46.484Z,18.10
2022-09-27T02:01:13.402Z,18.10
2022-09-27T02:03:41.482Z,18.00
2022-09-27T02:06:12.989Z,18.00
2022-09-27T02:08:41.993Z,18.00
2022-09-27T02:11:13.221Z,18.00
2022-09-27T02:13:43.156Z,18.00
2022-09-27T02:16:29.876Z,18.10
2022-09-27T02:19:15.768Z,18.10
2022-09-27T02:21:49.559Z,18.10
2022-09-27T02:24:19.139Z,18.10
2022-09-27T02:26:45.948Z,18.10
2022-09-27T02:29:27.347Z,18.10
2022-09-27T02:31:54.150Z,18.10
2022-09-27T02:34:24.703Z,18.00
2022-09-27T02:36:53.596Z,18.00
2022-09-27T02:39:20.516Z,18.00
2022-09-27T02:41:47.383Z,18.00
2022-09-27T02:44:14.410Z,18.00
2022-09-27T02:46:49.692Z,18.00
2022-09-27T02:49:28.641Z,18.00
2022-09-27T02:52:14.452Z,18.00
2022-09-27T02:54:47.391Z,17.90
2022-09-27T02:57:36.541Z,17.90
2022-09-27T03:00:09.513Z,17.80
2022-09-27T03:02:36.461Z,17.80
2022-09-27T03:05:04.830Z,17.80
2022-09-27T03:07:31.733Z,17.70
2022-09-27T03:09:58.631Z,17.70
2022-09-27T03:12:28.197Z,17.70
2022-09-27T03:14:58.657Z,17.60
2022-09-27T03:17:25.573Z,17.50
2022-09-27T03:19:52.607Z,17.40
2022-09-27T03:22:19.525Z,17.40
2022-09-27T03:24:46.496Z,17.30
2022-09-27T03:27:13.414Z,17.30
2022-09-27T03:29:40.277Z,17.30
2022-09-27T03:32:07.102Z,17.30
2022-09-27T03:34:34.025Z,17.40
2022-09-27T03:37:00.852Z,17.40
2022-09-27T03:39:27.779Z,17.40
2022-09-27T03:41:54.650Z,17.50
2022-09-27T03:44:21.537Z,17.50
2022-09-27T03:46:48.438Z,17.60
2022-09-27T03:49:15.572Z,17.60
2022-09-27T03:51:42.762Z,17.60
2022-09-27T03:54:10.158Z,17.60
2022-09-27T03:56:36.968Z,17.60
2022-09-27T03:59:03.913Z,17.60
2022-09-27T04:01:30.881Z,17.60
2022-09-27T04:03:57.886Z,17.60
2022-09-27T04:06:25.673Z,17.60
2022-09-27T04:08:52.597Z,17.60
2022-09-27T04:11:19.511Z,17.60
2022-09-27T04:13:48.960Z,17.60
2022-09-27T04:16:16.677Z,17.60
2022-09-27T04:18:43.818Z,17.60
2022-09-27T04:21:10.677Z,17.60
2022-09-27T04:23:37.682Z,17.60
2022-09-27T04:26:04.665Z,17.60
2022-09-27T04:28:32.140Z,17.60
2022-09-27T04:30:59.971Z,17.60
2022-09-27T04:33:26.956Z,17.60
2022-09-27T04:36:12.815Z,17.50
2022-09-27T04:38:42.641Z,17.50
2022-09-27T04:41:09.760Z,17.50
2022-09-27T04:43:36.693Z,17.50
2022-09-27T04:46:03.975Z,17.40
2022-09-27T04:48:31.108Z,17.40
2022-09-27T04:51:02.536Z,17.40
2022-09-27T04:53:32.577Z,17.40
2022-09-27T04:55:59.751Z,17.40
2022-09-27T04:58:26.632Z,17.40
2022-09-27T05:00:55.960Z,17.40
2022-09-27T05:03:23.056Z,17.40
2022-09-27T05:05:50.004Z,17.40
2022-09-27T05:08:16.963Z,17.40
2022-09-27T05:10:43.774Z,17.30
2022-09-27T05:13:10.664Z,17.30
2022-09-27T05:15:37.635Z,17.30
2022-09-27T05:18:04.650Z,17.40
2022-09-27T05:20:31.467Z,17.30
2022-09-27T05:22:58.433Z,17.30
2022-09-27T05:25:25.465Z,17.40
2022-09-27T05:27:52.297Z,17.40
2022-09-27T05:30:19.222Z,17.40
2022-09-27T05:32:48.255Z,17.40
2022-09-27T05:35:15.174Z,17.40
2022-09-27T05:37:42.022Z,17.40
2022-09-27T05:40:29.383Z,17.40
2022-09-27T05:42:55.978Z,17.50
2022-09-27T05:45:23.158Z,17.60
2022-09-27T05:47:54.250Z,17.60
2022-09-27T05:50:21.221Z,17.70
2022-09-27T05:52:48.501Z,17.70
2022-09-27T05:55:15.739Z,17.70
2022-09-27T05:57:42.593Z,17.70
2022-09-27T06:00:10.704Z,17.70
2022-09-27T06:02:38.101Z,17.80
2022-09-27T06:05:05.440Z,17.80
2022-09-27T06:07:32.424Z,17.90
2022-09-27T06:09:59.502Z,18.00
2022-09-27T06:12:26.300Z,18.00
2022-09-27T06:14:53.190Z,18.10
2022-09-27T06:17:20.340Z,18.20
2022-09-27T06:19:48.274Z,18.10
2022-09-27T06:22:15.112Z,17.80
2022-09-27T06:24:42.231Z,17.70
2022-09-27T06:27:09.207Z,17.80
2022-09-27T06:29:36.066Z,18.00
2022-09-27T06:32:03.021Z,18.30
2022-09-27T06:34:29.864Z,18.80
2022-09-27T06:36:57.374Z,19.10
2022-09-27T06:39:24.220Z,19.50
2022-09-27T06:41:54.434Z,19.90
2022-09-27T06:44:21.351Z,20.10
2022-09-27T06:46:48.205Z,20.10
2022-09-27T06:49:15.223Z,20.10
2022-09-27T06:51:43.090Z,20.20
2022-09-27T06:54:09.922Z,20.20
2022-09-27T06:56:36.791Z,20.20
2022-09-27T06:59:22.142Z,20.10
2022-09-27T07:01:50.071Z,19.90
2022-09-27T07:04:17.049Z,19.70
2022-09-27T07:06:44.248Z,19.50
2022-09-27T07:09:11.183Z,19.30
2022-09-27T07:11:38.112Z,19.30
2022-09-27T07:14:06.609Z,19.30
2022-09-27T07:16:36.054Z,19.40
2022-09-27T07:19:03.462Z,19.50
2022-09-27T07:21:30.712Z,19.80
2022-09-27T07:23:57.653Z,20.60
2022-09-27T07:26:24.639Z,21.10
2022-09-27T07:31:17.621Z,21.20
2022-09-27T07:33:48.972Z,21.30
2022-09-27T07:36:16.069Z,21.90
2022-09-27T07:38:46.391Z,22.20
2022-09-27T07:41:17.175Z,22.20
2022-09-27T07:43:48.988Z,22.00
2022-09-27T07:46:23.428Z,22.10
2022-09-27T07:48:52.751Z,22.80
2022-09-27T07:51:23.366Z,23.20
2022-09-27T07:56:25.947Z,23.70
2022-09-27T07:58:53.206Z,23.20
2022-09-27T08:01:20.338Z,22.70
2022-09-27T08:03:47.327Z,22.30
2022-09-27T08:06:14.483Z,22.00
2022-09-27T08:12:13.498Z,21.40
2022-09-27T08:14:45.022Z,21.00
2022-09-27T08:17:16.347Z,20.80
2022-09-27T08:19:45.274Z,20.80
2022-09-27T08:22:15.402Z,20.90
2022-09-27T08:24:42.448Z,21.10
2022-09-27T08:27:11.902Z,21.30
2022-09-27T08:29:42.110Z,22.00
2022-09-27T08:32:09.690Z,22.90
2022-09-27T08:34:37.102Z,23.60
2022-09-27T08:37:04.494Z,23.80
2022-09-27T08:39:31.791Z,23.70
2022-09-27T08:42:18.065Z,23.50
2022-09-27T08:44:49.433Z,23.20
2022-09-27T08:47:20.616Z,22.80
2022-09-27T08:49:50.982Z,22.40
2022-09-27T08:52:19.504Z,22.00
2022-09-27T08:54:47.351Z,21.50
2022-09-27T08:57:14.653Z,21.30
2022-09-27T08:59:42.502Z,21.20
2022-09-27T09:02:22.469Z,21.00
2022-09-27T09:04:50.460Z,20.90
2022-09-27T09:07:24.199Z,20.80
2022-09-27T09:13:16.353Z,20.70
2022-09-27T09:45:54.843Z,21.40
2022-09-27T12:25:59.343Z,35.80
2022-09-27T12:28:28.497Z,34.00
2022-09-27T12:31:17.260Z,32.20
2022-09-27T12:34:02.884Z,30.70
2022-09-27T12:36:38.454Z,29.30
2022-09-27T12:39:08.960Z,28.30
2022-09-27T12:41:36.675Z,27.60
2022-09-27T12:44:03.628Z,27.80
2022-09-27T12:46:55.937Z,29.50
2022-09-27T12:49:23.064Z,30.90
2022-09-27T12:51:55.261Z,30.90
2022-09-27T12:58:29.367Z,32.10
2022-09-27T13:01:17.162Z,33.40
2022-09-27T13:03:50.610Z,33.00
2022-09-27T13:06:32.168Z,33.90
2022-09-27T13:09:07.383Z,33.80
2022-09-27T13:11:37.268Z,32.60
2022-09-27T13:14:10.124Z,30.90
2022-09-27T13:16:45.054Z,29.80
2022-09-27T13:24:40.166Z,27.90
2022-09-27T13:27:26.146Z,28.30
2022-09-27T13:29:55.633Z,30.40
2022-09-27T13:32:23.943Z,32.70
2022-09-27T13:34:54.567Z,34.40
2022-09-27T13:37:40.246Z,34.90
2022-09-27T13:40:27.875Z,35.10
2022-09-27T13:43:10.507Z,35.70
2022-09-27T13:45:41.795Z,36.40
2022-09-27T13:48:16.523Z,36.80
2022-09-27T13:50:56.923Z,37.10
2022-09-27T13:53:26.493Z,37.40
2022-09-27T13:56:13.872Z,37.50
2022-09-27T13:58:42.431Z,37.60
2022-09-27T14:01:16.245Z,37.70
2022-09-27T14:03:52.607Z,37.70
2022-09-27T14:06:27.241Z,37.70
2022-09-27T14:08:57.060Z,37.60
2022-09-27T14:11:44.336Z,37.50
2022-09-27T14:14:14.987Z,37.40
2022-09-27T14:16:42.777Z,37.20
2022-09-27T14:19:14.345Z,37.10
2022-09-27T14:21:41.774Z,36.80
2022-09-27T14:24:27.650Z,36.30
2022-09-27T14:27:23.999Z,35.50
2022-09-27T14:29:55.786Z,34.40
2022-09-27T14:32:24.487Z,33.20
2022-09-27T14:35:27.707Z,32.10
2022-09-27T14:37:54.702Z,30.90
2022-09-27T14:40:22.103Z,29.90
2022-09-27T14:42:52.673Z,29.20
2022-09-27T14:45:23.240Z,28.50
2022-09-27T14:47:50.348Z,28.00
2022-09-27T14:50:22.524Z,27.70
2022-09-27T14:52:52.378Z,27.40
2022-09-27T14:55:20.449Z,27.10
2022-09-27T14:57:48.369Z,26.90
2022-09-27T15:00:22.250Z,26.80
2022-09-27T15:02:55.654Z,26.60
2022-09-27T15:05:23.705Z,26.40
2022-09-27T15:07:51.679Z,26.30
2022-09-27T15:10:19.566Z,26.10
2022-09-27T15:12:48.239Z,25.90
2022-09-27T15:15:19.782Z,25.80
2022-09-27T15:17:48.292Z,25.70
2022-09-27T15:20:20.159Z,25.70
2022-09-27T15:22:47.598Z,25.60
2022-09-27T15:25:19.039Z,25.50
2022-09-27T15:27:55.522Z,25.20
2022-09-27T15:30:30.025Z,25.00
2022-09-27T15:32:57.280Z,24.70
2022-09-27T15:35:25.626Z,24.50
2022-09-27T15:37:53.138Z,24.30
2022-09-27T15:40:20.793Z,24.10
2022-09-27T15:43:04.165Z,23.80
2022-09-27T15:45:34.970Z,23.90
2022-09-27T15:48:13.599Z,24.00
2022-09-27T15:50:41.619Z,23.80
2022-09-27T15:53:09.498Z,23.70
2022-09-27T15:55:43.286Z,23.80
2022-09-27T15:58:17.038Z,23.70
2022-09-27T16:00:54.371Z,23.80
2022-09-27T16:03:22.853Z,23.80
2022-09-27T16:05:49.870Z,23.80
2022-09-27T16:08:16.746Z,23.70
2022-09-27T16:10:47.560Z,23.60
2022-09-27T16:13:14.486Z,23.60
2022-09-27T16:15:41.337Z,23.40
2022-09-27T16:18:08.205Z,23.30
2022-09-27T16:20:35.023Z,23.30
2022-09-27T16:23:01.878Z,23.20
2022-09-27T16:25:29.030Z,23.10
2022-09-27T16:27:59.285Z,23.10
2022-09-27T16:30:26.965Z,23.00
2022-09-27T16:32:54.064Z,22.90
2022-09-27T16:35:21.762Z,22.90
2022-09-27T16:37:48.760Z,22.70
2022-09-27T16:40:18.132Z,22.60
2022-09-27T16:42:45.283Z,22.60
2022-09-27T16:45:18.961Z,22.60
2022-09-27T16:47:46.474Z,22.60
2022-09-27T16:50:32.188Z,22.50
2022-09-27T16:53:00.677Z,22.50
2022-09-27T16:55:28.938Z,22.40
2022-09-27T16:57:58.005Z,22.30
2022-09-27T17:00:25.433Z,22.20
2022-09-27T17:02:53.123Z,22.10
2022-09-27T17:05:22.743Z,22.10
2022-09-27T17:07:50.201Z,22.00
2022-09-27T17:10:17.368Z,22.00
2022-09-27T17:12:44.315Z,21.90
2022-09-27T17:15:11.708Z,21.80
2022-09-27T17:17:38.633Z,21.70
2022-09-27T17:20:05.600Z,21.50
2022-09-27T17:22:32.375Z,21.40
2022-09-27T17:25:00.838Z,21.20
2022-09-27T17:27:28.169Z,21.20
2022-09-27T17:29:57.981Z,21.10
2022-09-27T17:32:24.937Z,20.90
2022-09-27T17:34:52.017Z,20.80
2022-09-27T17:37:19.071Z,20.70
2022-09-27T17:39:45.932Z,20.60
2022-09-27T17:42:15.758Z,20.60
2022-09-27T17:44:42.563Z,20.60
2022-09-27T17:47:28.029Z,20.60
2022-09-27T17:50:13.814Z,20.50
2022-09-27T17:52:40.744Z,20.40
2022-09-27T17:55:08.126Z,20.40
2022-09-27T17:57:36.231Z,20.30
2022-09-27T18:00:03.329Z,20.30
2022-09-27T18:02:30.377Z,20.30
2022-09-27T18:04:57.535Z,20.20
2022-09-27T18:07:25.179Z,20.20
2022-09-27T18:09:52.019Z,20.10
2022-09-27T18:12:18.907Z,20.00
2022-09-27T18:14:46.034Z,20.00
2022-09-27T18:17:13.090Z,19.90
2022-09-27T18:19:40.063Z,19.90
2022-09-27T18:22:07.475Z,19.90
2022-09-27T18:24:34.279Z,19.80
2022-09-27T18:27:01.417Z,19.80
2022-09-27T18:29:28.994Z,19.70
2022-09-27T18:31:56.010Z,19.70
2022-09-27T18:34:23.116Z,19.70
2022-09-27T18:36:50.558Z,19.60
2022-09-27T18:39:19.411Z,19.60
2022-09-27T18:41:48.781Z,19.60
2022-09-27T18:44:15.771Z,19.60
2022-09-27T18:46:42.833Z,19.50
2022-09-27T18:49:14.288Z,19.50
2022-09-27T18:51:44.990Z,19.50
2022-09-27T18:54:16.225Z,19.50
2022-09-27T18:56:43.329Z,19.40
2022-09-27T18:59:14.411Z,19.40
2022-09-27T19:01:43.430Z,19.30
2022-09-27T19:04:10.661Z,19.30
2022-09-27T19:06:37.680Z,19.30
2022-09-27T19:09:04.938Z,19.30
2022-09-27T19:11:31.951Z,19.30
2022-09-27T19:13:59.015Z,19.30
2022-09-27T19:16:28.616Z,19.20
2022-09-27T19:18:55.768Z,19.10
2022-09-27T19:21:23.530Z,19.10
2022-09-27T19:23:51.518Z,19.10
2022-09-27T19:26:19.569Z,19.10
2022-09-27T19:28:46.809Z,19.10
2022-09-27T19:31:16.725Z,19.00
2022-09-27T19:33:43.710Z,19.10
2022-09-27T19:36:11.054Z,19.00
2022-09-27T19:38:38.061Z,18.90
2022-09-27T19:41:05.306Z,18.90
2022-09-27T19:43:32.334Z,19.00
2022-09-27T19:46:08.755Z,19.00
2022-09-27T19:48:36.009Z,19.10
2022-09-27T19:51:02.912Z,19.10
2022-09-27T19:53:32.156Z,19.10
2022-09-27T19:56:03.331Z,19.10
2022-09-27T19:58:30.482Z,19.00
2022-09-27T20:01:01.685Z,19.00
2022-09-27T20:03:28.713Z,19.00
2022-09-27T20:05:58.232Z,19.00
2022-09-27T20:08:25.586Z,18.90
2022-09-27T20:11:03.744Z,18.80
2022-09-27T20:13:32.901Z,18.90
2022-09-27T20:16:04.027Z,18.70
2022-09-27T20:18:31.087Z,18.70
2022-09-27T20:21:01.618Z,18.60
2022-09-27T20:23:29.227Z,18.60
2022-09-27T20:26:01.907Z,18.50
2022-09-27T20:28:29.048Z,18.50
2022-09-27T20:30:57.154Z,18.50
2022-09-27T20:33:42.496Z,18.50
2022-09-27T20:36:09.798Z,18.50
2022-09-27T20:38:38.292Z,18.40
2022-09-27T20:41:05.205Z,18.30
2022-09-27T20:43:32.443Z,18.30
2022-09-27T20:46:03.460Z,18.30
2022-09-27T20:48:30.408Z,18.30
2022-09-27T20:51:04.512Z,18.10
2022-09-27T20:53:32.024Z,18.20
2022-09-27T20:55:59.657Z,18.30
2022-09-27T20:58:26.721Z,18.30
2022-09-27T21:00:53.819Z,18.40
2022-09-27T21:03:21.946Z,18.40
2022-09-27T21:05:55.373Z,18.50
2022-09-27T21:08:22.365Z,18.50
2022-09-27T21:10:52.674Z,18.50
2022-09-27T21:13:19.950Z,18.50
2022-09-27T21:15:46.939Z,18.60
2022-09-27T21:18:13.916Z,18.60
2022-09-27T21:20:40.872Z,18.60
2022-09-27T21:23:07.753Z,18.60
2022-09-27T21:25:34.637Z,18.50
2022-09-27T21:28:04.377Z,18.40
2022-09-27T21:30:32.668Z,18.20
2022-09-27T21:33:01.532Z,18.10
2022-09-27T21:35:29.343Z,18.20
2022-09-27T21:37:56.930Z,18.10
2022-09-27T21:40:23.947Z,18.10
2022-09-27T21:42:55.606Z,18.10
2022-09-27T21:45:24.502Z,18.10
2022-09-27T21:47:51.393Z,18.20
2022-09-27T21:50:21.191Z,18.20
2022-09-27T21:52:48.563Z,18.20
2022-09-27T21:55:15.417Z,18.20
2022-09-27T21:57:42.876Z,18.00
2022-09-27T22:00:10.161Z,18.00
2022-09-27T22:02:36.988Z,18.00
2022-09-27T22:05:03.891Z,18.10
2022-09-27T22:07:30.776Z,18.10
2022-09-27T22:09:57.704Z,18.00
2022-09-27T22:12:24.581Z,18.00
2022-09-27T22:14:51.560Z,17.90
2022-09-27T22:17:18.415Z,17.80
2022-09-27T22:19:45.284Z,17.80
2022-09-27T22:22:12.098Z,17.90
2022-09-27T22:24:39.082Z,17.90
2022-09-27T22:27:06.045Z,17.90
2022-09-27T22:29:32.873Z,17.90
2022-09-27T22:31:59.708Z,17.90
2022-09-27T22:34:29.521Z,17.90
2022-09-27T22:36:56.907Z,17.80
2022-09-27T22:39:23.859Z,17.70
2022-09-27T22:41:50.725Z,17.70
2022-09-27T22:44:17.611Z,17.80
2022-09-27T22:46:44.552Z,17.80
2022-09-27T22:49:11.528Z,17.70
2022-09-27T22:51:38.474Z,17.80
2022-09-27T22:54:05.486Z,17.70
2022-09-27T22:56:32.363Z,17.80
2022-09-27T22:58:59.215Z,17.80
2022-09-27T23:01:26.193Z,17.90
2022-09-27T23:03:53.463Z,17.90
2022-09-27T23:06:20.798Z,17.90
2022-09-27T23:08:47.791Z,17.90
2022-09-27T23:11:15.522Z,17.80
2022-09-27T23:13:42.614Z,17.80
2022-09-27T23:16:10.318Z,17.80
2022-09-27T23:18:37.509Z,17.80
2022-09-27T23:21:07.086Z,17.80
2022-09-27T23:23:34.698Z,17.70
2022-09-27T23:26:02.228Z,17.80
2022-09-27T23:28:29.517Z,17.80
2022-09-27T23:31:04.256Z,17.80
2022-09-27T23:33:33.894Z,17.70
2022-09-27T23:36:02.467Z,17.80
2022-09-27T23:38:31.078Z,17.80
2022-09-27T23:40:58.200Z,17.80
2022-09-27T23:43:25.242Z,17.80
2022-09-27T23:45:54.274Z,17.90
2022-09-27T23:48:21.409Z,17.80
2022-09-27T23:50:48.507Z,17.90
2022-09-27T23:53:15.451Z,17.90
2022-09-27T23:55:44.939Z,17.80
2022-09-27T23:58:11.832Z,17.80
